KRHI/RHI METAR and TAF weather

Enter ICAO airport designator
Station Type Date Time Source
KRHI METAR 2019/08/17 11:31 UTC NOAA

KRHI 171131Z AUTO 00000KT 3SM BR CLR 12/11 A2986 RMK AO2 PRESRR T01220111 $


Station Type Date Time Source
KRHI Decoded METAR 2019/08/17 11:31 UTC NOAA

Station name not available
Aug 17, 2019 - 07:31 AM EDT / 2019.08.17 1131 UTC
Wind: Calm:0
Visibility: 3 mile(s):0
Sky conditions: clear
Weather: mist
Temperature: 54.0 F (12.2 C)
Dew Point: 52.0 F (11.1 C)
Relative Humidity: 92%
Pressure (altimeter): 29.86 in. Hg (1011 hPa)
Pressure tendency: rising rapidly
ob: KRHI 171131Z AUTO 00000KT 3SM BR CLR 12/11 A2986 RMK AO2 PRESRR T01220111
cycle: 11

Station Type Date Time Source
KRHI TAF 2019/08/17 12:30 UTC NOAA

TAF KRHI 171129Z 1712/1812 VRB03KT P6SM SKC
TEMPO 1712/1713 3SM BR
FM171300 23003KT P6SM SKC
FM171500 22004KT P6SM SCT035
FM180100 16004KT P6SM SCT250
FM180600 16004KT P6SM SCT080
FM181100 15005KT P6SM -SHRA SCT025 BKN060

Example: see airport list